sensor_id;sensor_type;location;lat;lon;timestamp;pressure;altitude;pressure_sealevel;temperature;humidity
13478;BME280;12598;62.382;17.344;2022-08-19T00:00:07;101518.66;;;27.28;37.47
13478;BME280;12598;62.382;17.344;2022-08-19T00:01:10;101494.59;;;27.11;37.44
13478;BME280;12598;62.382;17.344;2022-08-19T00:02:12;101487.75;;;27.00;37.67
13478;BME280;12598;62.382;17.344;2022-08-19T00:03:13;101501.78;;;27.18;37.70
13478;BME280;12598;62.382;17.344;2022-08-19T00:04:17;101518.66;;;27.28;37.77
13478;BME280;12598;62.382;17.344;2022-08-19T00:05:21;101507.78;;;27.28;37.65
13478;BME280;12598;62.382;17.344;2022-08-19T00:06:24;101486.25;;;27.12;38.00
13478;BME280;12598;62.382;17.344;2022-08-19T00:07:26;101419.34;;;26.76;37.46
13478;BME280;12598;62.382;17.344;2022-08-19T00:08:28;101466.41;;;26.97;37.54
13478;BME280;12598;62.382;17.344;2022-08-19T00:09:30;101464.34;;;26.99;37.49
13478;BME280;12598;62.382;17.344;2022-08-19T00:10:32;101509.84;;;27.26;37.82
13478;BME280;12598;62.382;17.344;2022-08-19T00:11:36;101477.34;;;27.04;37.57
13478;BME280;12598;62.382;17.344;2022-08-19T00:12:39;101523.22;;;27.27;37.61
13478;BME280;12598;62.382;17.344;2022-08-19T00:13:47;101429.81;;;26.79;37.86
13478;BME280;12598;62.382;17.344;2022-08-19T00:14:51;101452.56;;;26.92;37.73
13478;BME280;12598;62.382;17.344;2022-08-19T00:15:56;101375.44;;;26.43;38.00
13478;BME280;12598;62.382;17.344;2022-08-19T00:17:01;101488.78;;;27.14;37.79
13478;BME280;12598;62.382;17.344;2022-08-19T00:18:03;101381.19;;;26.48;37.45
13478;BME280;12598;62.382;17.344;2022-08-19T00:19:06;101452.94;;;26.89;37.92
13478;BME280;12598;62.382;17.344;2022-08-19T00:20:10;101518.81;;;27.26;37.82
13478;BME280;12598;62.382;17.344;2022-08-19T00:21:12;101376.53;;;26.34;37.93
13478;BME280;12598;62.382;17.344;2022-08-19T00:22:14;101475.94;;;26.93;38.07
13478;BME280;12598;62.382;17.344;2022-08-19T00:23:18;101439.16;;;26.76;37.96
13478;BME280;12598;62.382;17.344;2022-08-19T00:24:20;101484.00;;;27.01;37.66
13478;BME280;12598;62.382;17.344;2022-08-19T00:25:22;101402.31;;;26.53;37.76
13478;BME280;12598;62.382;17.344;2022-08-19T00:26:31;101371.06;;;26.42;37.91
13478;BME280;12598;62.382;17.344;2022-08-19T00:27:33;101518.00;;;27.26;37.89
13478;BME280;12598;62.382;17.344;2022-08-19T00:28:35;101491.25;;;27.09;38.05
13478;BME280;12598;62.382;17.344;2022-08-19T00:29:38;101508.16;;;27.25;37.88
13478;BME280;12598;62.382;17.344;2022-08-19T00:30:39;101437.03;;;26.86;38.13
13478;BME280;12598;62.382;17.344;2022-08-19T00:31:43;101494.75;;;27.23;38.12
13478;BME280;12598;62.382;17.344;2022-08-19T00:32:45;101482.13;;;27.16;38.03
13478;BME280;12598;62.382;17.344;2022-08-19T00:33:47;101481.03;;;27.11;37.80
13478;BME280;12598;62.382;17.344;2022-08-19T00:34:52;101485.09;;;27.21;38.13
13478;BME280;12598;62.382;17.344;2022-08-19T00:35:55;101458.91;;;26.99;37.79
13478;BME280;12598;62.382;17.344;2022-08-19T00:36:57;101493.94;;;27.23;37.85
13478;BME280;12598;62.382;17.344;2022-08-19T00:37:59;101464.34;;;26.99;37.98
13478;BME280;12598;62.382;17.344;2022-08-19T00:39:01;101493.94;;;27.23;37.99
13478;BME280;12598;62.382;17.344;2022-08-19T00:40:04;101464.34;;;26.99;38.03
13478;BME280;12598;62.382;17.344;2022-08-19T00:41:07;101507.53;;;27.23;37.83
13478;BME280;12598;62.382;17.344;2022-08-19T00:42:10;101489.63;;;27.14;38.18
13478;BME280;12598;62.382;17.344;2022-08-19T00:43:13;101497.69;;;27.22;37.95
13478;BME280;12598;62.382;17.344;2022-08-19T00:44:27;101480.00;;;27.12;37.87
13478;BME280;12598;62.382;17.344;2022-08-19T00:45:30;101470.69;;;27.06;37.96
13478;BME280;12598;62.382;17.344;2022-08-19T00:46:39;101443.09;;;26.88;37.99
13478;BME280;12598;62.382;17.344;2022-08-19T00:47:41;101469.88;;;27.06;37.54
13478;BME280;12598;62.382;17.344;2022-08-19T00:48:43;101477.16;;;27.05;37.55
13478;BME280;12598;62.382;17.344;2022-08-19T00:49:48;101429.81;;;26.79;37.70
13478;BME280;12598;62.382;17.344;2022-08-19T00:50:53;101505.63;;;27.23;37.70
13478;BME280;12598;62.382;17.344;2022-08-19T00:52:07;101506.66;;;27.23;37.95
13478;BME280;12598;62.382;17.344;2022-08-19T00:53:15;101502.75;;;27.25;37.76
13478;BME280;12598;62.382;17.344;2022-08-19T00:54:19;101482.88;;;27.10;37.61
13478;BME280;12598;62.382;17.344;2022-08-19T00:55:32;101347.09;;;26.31;37.54
13478;BME280;12598;62.382;17.344;2022-08-19T00:56:35;101474.16;;;27.00;37.66
13478;BME280;12598;62.382;17.344;2022-08-19T00:57:40;101367.38;;;26.35;38.16
13478;BME280;12598;62.382;17.344;2022-08-19T00:58:43;101453.75;;;26.90;37.68
13478;BME280;12598;62.382;17.344;2022-08-19T00:59:47;101379.09;;;26.36;38.02
13478;BME280;12598;62.382;17.344;2022-08-19T01:01:04;101522.78;;;27.24;38.00
13478;BME280;12598;62.382;17.344;2022-08-19T01:02:06;101373.19;;;26.32;37.82
13478;BME280;12598;62.382;17.344;2022-08-19T01:03:18;101516.88;;;27.21;37.96
13478;BME280;12598;62.382;17.344;2022-08-19T01:04:20;101528.38;;;27.23;37.97
13478;BME280;12598;62.382;17.344;2022-08-19T01:05:25;101495.22;;;26.98;38.02
13478;BME280;12598;62.382;17.344;2022-08-19T01:06:30;101489.97;;;26.97;38.11
13478;BME280;12598;62.382;17.344;2022-08-19T01:07:34;101477.53;;;26.88;37.79
13478;BME280;12598;62.382;17.344;2022-08-19T01:08:38;101521.00;;;27.17;38.06
13478;BME280;12598;62.382;17.344;2022-08-19T01:09:40;101446.38;;;26.69;38.15
13478;BME280;12598;62.382;17.344;2022-08-19T01:10:49;101521.66;;;27.19;37.97
13478;BME280;12598;62.382;17.344;2022-08-19T01:11:52;101479.88;;;26.91;38.00
13478;BME280;12598;62.382;17.344;2022-08-19T01:12:55;101528.94;;;27.18;37.63
13478;BME280;12598;62.382;17.344;2022-08-19T01:13:58;101456.47;;;26.75;37.91
13478;BME280;12598;62.382;17.344;2022-08-19T01:15:00;101483.16;;;26.86;38.06
13478;BME280;12598;62.382;17.344;2022-08-19T01:16:07;101516.31;;;27.11;37.96
13478;BME280;12598;62.382;17.344;2022-08-19T01:17:11;101465.38;;;26.84;38.16
13478;BME280;12598;62.382;17.344;2022-08-19T01:18:14;101426.91;;;26.51;38.19
13478;BME280;12598;62.382;17.344;2022-08-19T01:19:26;101521.81;;;27.17;38.05
13478;BME280;12598;62.382;17.344;2022-08-19T01:20:29;101414.19;;;26.52;38.11
13478;BME280;12598;62.382;17.344;2022-08-19T01:21:36;101451.41;;;26.72;38.30
13478;BME280;12598;62.382;17.344;2022-08-19T01:22:51;101518.72;;;27.20;38.32
13478;BME280;12598;62.382;17.344;2022-08-19T01:23:54;101382.63;;;26.36;38.39
13478;BME280;12598;62.382;17.344;2022-08-19T01:24:56;101408.81;;;26.44;38.21
13478;BME280;12598;62.382;17.344;2022-08-19T01:25:59;101411.75;;;26.42;38.33
13478;BME280;12598;62.382;17.344;2022-08-19T01:27:06;101519.50;;;27.14;38.27
13478;BME280;12598;62.382;17.344;2022-08-19T01:28:25;101486.53;;;27.03;38.39
13478;BME280;12598;62.382;17.344;2022-08-19T01:29:37;101470.03;;;26.90;38.27
13478;BME280;12598;62.382;17.344;2022-08-19T01:30:41;101429.44;;;26.67;38.21
13478;BME280;12598;62.382;17.344;2022-08-19T01:31:51;101465.47;;;26.90;38.47
13478;BME280;12598;62.382;17.344;2022-08-19T01:32:55;101485.50;;;27.04;38.74
13478;BME280;12598;62.382;17.344;2022-08-19T01:33:57;101486.44;;;26.96;38.33
13478;BME280;12598;62.382;17.344;2022-08-19T01:35:00;101486.88;;;27.00;38.14
13478;BME280;12598;62.382;17.344;2022-08-19T01:36:06;101472.69;;;26.83;38.25
13478;BME280;12598;62.382;17.344;2022-08-19T01:37:10;101504.22;;;27.13;38.54
13478;BME280;12598;62.382;17.344;2022-08-19T01:38:22;101468.19;;;26.90;38.17
13478;BME280;12598;62.382;17.344;2022-08-19T01:39:26;101509.28;;;27.16;38.49
13478;BME280;12598;62.382;17.344;2022-08-19T01:40:32;101511.34;;;27.14;38.16
13478;BME280;12598;62.382;17.344;2022-08-19T01:41:34;101375.50;;;26.35;38.73
13478;BME280;12598;62.382;17.344;2022-08-19T01:42:36;101419.06;;;26.56;38.51
13478;BME280;12598;62.382;17.344;2022-08-19T01:43:39;101497.13;;;27.12;38.27
13478;BME280;12598;62.382;17.344;2022-08-19T01:45:01;101447.22;;;26.84;38.36
13478;BME280;12598;62.382;17.344;2022-08-19T01:46:04;101334.19;;;26.04;38.26
13478;BME280;12598;62.382;17.344;2022-08-19T01:47:06;101368.81;;;26.17;38.19
13478;BME280;12598;62.382;17.344;2022-08-19T01:48:09;101365.41;;;26.29;38.49
13478;BME280;12598;62.382;17.344;2022-08-19T01:49:12;101387.88;;;26.38;38.46
13478;BME280;12598;62.382;17.344;2022-08-19T01:50:14;101510.69;;;27.12;38.39
13478;BME280;12598;62.382;17.344;2022-08-19T01:51:16;101468.94;;;26.84;38.77
13478;BME280;12598;62.382;17.344;2022-08-19T01:52:19;101361.78;;;26.22;38.73
13478;BME280;12598;62.382;17.344;2022-08-19T01:53:21;101434.31;;;26.57;38.56
13478;BME280;12598;62.382;17.344;2022-08-19T01:54:27;101367.56;;;26.19;38.54
13478;BME280;12598;62.382;17.344;2022-08-19T01:55:29;101469.66;;;26.78;38.59
13478;BME280;12598;62.382;17.344;2022-08-19T01:56:31;101423.19;;;26.52;38.75
13478;BME280;12598;62.382;17.344;2022-08-19T01:57:33;101436.28;;;26.63;38.51
13478;BME280;12598;62.382;17.344;2022-08-19T01:58:38;101473.88;;;26.81;38.77
13478;BME280;12598;62.382;17.344;2022-08-19T01:59:42;101464.53;;;26.83;38.72
13478;BME280;12598;62.382;17.344;2022-08-19T02:00:46;101374.22;;;26.31;38.75
13478;BME280;12598;62.382;17.344;2022-08-19T02:01:48;101515.47;;;27.10;38.78
13478;BME280;12598;62.382;17.344;2022-08-19T02:02:50;101455.09;;;26.79;38.53
13478;BME280;12598;62.382;17.344;2022-08-19T02:03:52;101485.88;;;27.01;38.60
13478;BME280;12598;62.382;17.344;2022-08-19T02:04:58;101389.38;;;26.40;38.73
13478;BME280;12598;62.382;17.344;2022-08-19T02:06:01;101364.69;;;26.21;38.46
13478;BME280;12598;62.382;17.344;2022-08-19T02:07:07;101476.78;;;26.94;38.49
13478;BME280;12598;62.382;17.344;2022-08-19T02:08:10;101505.63;;;27.09;38.72
13478;BME280;12598;62.382;17.344;2022-08-19T02:09:12;101455.09;;;26.79;38.60
13478;BME280;12598;62.382;17.344;2022-08-19T02:10:18;101459.84;;;26.77;38.44
13478;BME280;12598;62.382;17.344;2022-08-19T02:11:24;101438.88;;;26.71;38.73
13478;BME280;12598;62.382;17.344;2022-08-19T02:12:28;101521.75;;;27.11;38.87
13478;BME280;12598;62.382;17.344;2022-08-19T02:13:32;101462.00;;;26.82;38.77
13478;BME280;12598;62.382;17.344;2022-08-19T02:14:35;101463.59;;;26.76;38.62
13478;BME280;12598;62.382;17.344;2022-08-19T02:15:38;101318.03;;;25.96;38.53
13478;BME280;12598;62.382;17.344;2022-08-19T02:16:39;101448.81;;;26.64;38.75
13478;BME280;12598;62.382;17.344;2022-08-19T02:17:42;101448.44;;;26.67;38.66
13478;BME280;12598;62.382;17.344;2022-08-19T02:18:44;101288.06;;;25.75;39.07
13478;BME280;12598;62.382;17.344;2022-08-19T02:19:47;101454.13;;;26.58;39.10
13478;BME280;12598;62.382;17.344;2022-08-19T02:20:49;101385.72;;;26.33;38.70
13478;BME280;12598;62.382;17.344;2022-08-19T02:21:51;101281.13;;;25.59;38.97
13478;BME280;12598;62.382;17.344;2022-08-19T02:22:53;101488.22;;;26.89;39.00
13478;BME280;12598;62.382;17.344;2022-08-19T02:23:55;101454.78;;;26.74;38.78
13478;BME280;12598;62.382;17.344;2022-08-19T02:24:57;101475.03;;;26.86;38.71
13478;BME280;12598;62.382;17.344;2022-08-19T02:25:59;101460.22;;;26.74;39.08
13478;BME280;12598;62.382;17.344;2022-08-19T02:27:01;101332.22;;;25.98;38.90
13478;BME280;12598;62.382;17.344;2022-08-19T02:28:03;101489.41;;;27.01;39.00
13478;BME280;12598;62.382;17.344;2022-08-19T02:29:05;101489.91;;;26.90;38.97
13478;BME280;12598;62.382;17.344;2022-08-19T02:30:10;101459.84;;;26.77;39.02
13478;BME280;12598;62.382;17.344;2022-08-19T02:31:19;101405.88;;;26.53;38.82
13478;BME280;12598;62.382;17.344;2022-08-19T02:32:21;101352.34;;;26.18;38.95
13478;BME280;12598;62.382;17.344;2022-08-19T02:33:23;101406.69;;;26.39;39.01
13478;BME280;12598;62.382;17.344;2022-08-19T02:34:25;101459.84;;;26.77;39.08
13478;BME280;12598;62.382;17.344;2022-08-19T02:35:27;101473.25;;;26.79;38.85
13478;BME280;12598;62.382;17.344;2022-08-19T02:36:29;101428.50;;;26.60;39.13
13478;BME280;12598;62.382;17.344;2022-08-19T02:37:31;101395.34;;;26.36;38.61
13478;BME280;12598;62.382;17.344;2022-08-19T02:38:52;101482.03;;;26.95;38.96
13478;BME280;12598;62.382;17.344;2022-08-19T02:39:56;101481.19;;;26.95;38.70
13478;BME280;12598;62.382;17.344;2022-08-19T02:41:05;101503.78;;;27.10;38.77
13478;BME280;12598;62.382;17.344;2022-08-19T02:42:07;101370.47;;;26.32;38.86
13478;BME280;12598;62.382;17.344;2022-08-19T02:43:09;101428.34;;;26.62;38.98
13478;BME280;12598;62.382;17.344;2022-08-19T02:44:11;101457.22;;;26.69;38.78
13478;BME280;12598;62.382;17.344;2022-08-19T02:45:38;101411.56;;;26.58;38.84
13478;BME280;12598;62.382;17.344;2022-08-19T02:46:42;101524.91;;;27.14;38.35
13478;BME280;12598;62.382;17.344;2022-08-19T02:47:46;101454.50;;;26.84;38.91
13478;BME280;12598;62.382;17.344;2022-08-19T02:48:53;101371.59;;;26.23;38.95
13478;BME280;12598;62.382;17.344;2022-08-19T02:49:55;101497.47;;;26.95;38.84
13478;BME280;12598;62.382;17.344;2022-08-19T02:50:57;101511.25;;;27.08;39.21
13478;BME280;12598;62.382;17.344;2022-08-19T02:51:59;101503.66;;;27.03;38.62
13478;BME280;12598;62.382;17.344;2022-08-19T02:53:00;101472.47;;;26.85;38.73
13478;BME280;12598;62.382;17.344;2022-08-19T02:54:03;101463.13;;;26.87;38.49
13478;BME280;12598;62.382;17.344;2022-08-19T02:55:06;101441.59;;;26.71;38.90
13478;BME280;12598;62.382;17.344;2022-08-19T02:56:08;101411.09;;;26.55;38.83
13478;BME280;12598;62.382;17.344;2022-08-19T02:57:10;101369.38;;;26.27;38.47
13478;BME280;12598;62.382;17.344;2022-08-19T02:58:13;101493.44;;;27.05;38.79
13478;BME280;12598;62.382;17.344;2022-08-19T02:59:16;101437.03;;;26.72;39.11
13478;BME280;12598;62.382;17.344;2022-08-19T03:00:20;101459.13;;;26.83;38.53
13478;BME280;12598;62.382;17.344;2022-08-19T03:01:31;101488.00;;;27.05;38.67
13478;BME280;12598;62.382;17.344;2022-08-19T03:02:33;101352.25;;;26.26;38.77
13478;BME280;12598;62.382;17.344;2022-08-19T03:03:35;101481.81;;;26.97;38.77
13478;BME280;12598;62.382;17.344;2022-08-19T03:04:37;101461.25;;;26.88;39.09
13478;BME280;12598;62.382;17.344;2022-08-19T03:05:40;101426.34;;;26.70;39.03
13478;BME280;12598;62.382;17.344;2022-08-19T03:06:56;101444.97;;;26.73;38.94
13478;BME280;12598;62.382;17.344;2022-08-19T03:08:12;101444.13;;;26.87;38.74
13478;BME280;12598;62.382;17.344;2022-08-19T03:09:15;101489.34;;;27.09;38.86
13478;BME280;12598;62.382;17.344;2022-08-19T03:10:17;101466.69;;;26.88;39.13
13478;BME280;12598;62.382;17.344;2022-08-19T03:11:23;101467.16;;;26.91;38.56
13478;BME280;12598;62.382;17.344;2022-08-19T03:12:25;101445.94;;;26.80;38.89
13478;BME280;12598;62.382;17.344;2022-08-19T03:13:26;101394.75;;;26.48;39.04
13478;BME280;12598;62.382;17.344;2022-08-19T03:14:33;101485.28;;;27.05;39.07
13478;BME280;12598;62.382;17.344;2022-08-19T03:15:39;101399.97;;;26.50;39.23
13478;BME280;12598;62.382;17.344;2022-08-19T03:16:44;101460.88;;;26.91;38.74
13478;BME280;12598;62.382;17.344;2022-08-19T03:17:46;101474.91;;;26.94;38.81
13478;BME280;12598;62.382;17.344;2022-08-19T03:18:48;101454.50;;;26.84;39.26
13478;BME280;12598;62.382;17.344;2022-08-19T03:19:50;101433.19;;;26.66;39.16
13478;BME280;12598;62.382;17.344;2022-08-19T03:20:53;101445.25;;;26.78;38.96
13478;BME280;12598;62.382;17.344;2022-08-19T03:21:56;101459.50;;;26.80;39.21
13478;BME280;12598;62.382;17.344;2022-08-19T03:22:58;101426.28;;;26.64;39.21
13478;BME280;12598;62.382;17.344;2022-08-19T03:24:03;101428.63;;;26.67;39.18
13478;BME280;12598;62.382;17.344;2022-08-19T03:25:06;101365.53;;;26.36;39.22
13478;BME280;12598;62.382;17.344;2022-08-19T03:26:07;101457.88;;;26.86;38.94
13478;BME280;12598;62.382;17.344;2022-08-19T03:27:17;101500.38;;;27.08;39.20
13478;BME280;12598;62.382;17.344;2022-08-19T03:28:20;101452.38;;;26.79;38.82
13478;BME280;12598;62.382;17.344;2022-08-19T03:29:22;101458.38;;;26.89;38.99
13478;BME280;12598;62.382;17.344;2022-08-19T03:30:32;101439.38;;;26.75;39.30
13478;BME280;12598;62.382;17.344;2022-08-19T03:31:34;101483.44;;;27.06;38.91
13478;BME280;12598;62.382;17.344;2022-08-19T03:32:51;101482.88;;;27.10;38.80
13478;BME280;12598;62.382;17.344;2022-08-19T03:33:57;101438.81;;;26.79;38.92
13478;BME280;12598;62.382;17.344;2022-08-19T03:34:59;101507.00;;;27.05;39.12
13478;BME280;12598;62.382;17.344;2022-08-19T03:37:10;101481.94;;;27.03;39.33
13478;BME280;12598;62.382;17.344;2022-08-19T03:38:15;101430.09;;;26.69;39.47
13478;BME280;12598;62.382;17.344;2022-08-19T03:39:17;101428.41;;;26.68;38.89
13478;BME280;12598;62.382;17.344;2022-08-19T03:40:19;101487.34;;;27.03;39.33
13478;BME280;12598;62.382;17.344;2022-08-19T03:41:24;101378.22;;;26.35;39.20
13478;BME280;12598;62.382;17.344;2022-08-19T03:42:44;101460.59;;;26.86;39.03
13478;BME280;12598;62.382;17.344;2022-08-19T03:43:51;101495.81;;;27.08;39.02
13478;BME280;12598;62.382;17.344;2022-08-19T03:44:53;101365.41;;;26.29;39.33
13478;BME280;12598;62.382;17.344;2022-08-19T03:46:11;101458.91;;;26.85;39.19
13478;BME280;12598;62.382;17.344;2022-08-19T03:47:13;101410.06;;;26.56;39.12
13478;BME280;12598;62.382;17.344;2022-08-19T03:48:18;101459.78;;;26.85;39.18
13478;BME280;12598;62.382;17.344;2022-08-19T03:49:21;101454.34;;;26.85;39.27
13478;BME280;12598;62.382;17.344;2022-08-19T03:50:28;101366.06;;;26.31;39.17
13478;BME280;12598;62.382;17.344;2022-08-19T03:51:34;101348.88;;;26.24;39.33
13478;BME280;12598;62.382;17.344;2022-08-19T03:52:36;101467.16;;;26.91;39.49
13478;BME280;12598;62.382;17.344;2022-08-19T03:53:38;101459.94;;;26.84;39.24
13478;BME280;12598;62.382;17.344;2022-08-19T03:54:41;101418.03;;;26.57;39.23
13478;BME280;12598;62.382;17.344;2022-08-19T03:55:43;101460.41;;;26.87;39.28
13478;BME280;12598;62.382;17.344;2022-08-19T03:56:48;101481.28;;;27.01;39.38
13478;BME280;12598;62.382;17.344;2022-08-19T03:57:50;101420.00;;;26.63;39.67
13478;BME280;12598;62.382;17.344;2022-08-19T03:58:52;101457.44;;;26.82;39.48
13478;BME280;12598;62.382;17.344;2022-08-19T03:59:54;101468.84;;;26.92;39.42
13478;BME280;12598;62.382;17.344;2022-08-19T04:01:10;101480.72;;;27.06;39.35
13478;BME280;12598;62.382;17.344;2022-08-19T04:02:13;101448.91;;;26.85;39.35
13478;BME280;12598;62.382;17.344;2022-08-19T04:03:15;101431.88;;;26.77;39.33
13478;BME280;12598;62.382;17.344;2022-08-19T04:04:17;101462.00;;;26.82;39.26
13478;BME280;12598;62.382;17.344;2022-08-19T04:05:20;101359.81;;;26.31;39.21
13478;BME280;12598;62.382;17.344;2022-08-19T04:06:30;101339.63;;;26.04;39.13
13478;BME280;12598;62.382;17.344;2022-08-19T04:07:33;101403.16;;;26.53;39.67
13478;BME280;12598;62.382;17.344;2022-08-19T04:08:35;101421.94;;;26.69;39.41
13478;BME280;12598;62.382;17.344;2022-08-19T04:09:37;101458.38;;;26.89;39.48
13478;BME280;12598;62.382;17.344;2022-08-19T04:10:39;101454.34;;;26.85;39.69
13478;BME280;12598;62.382;17.344;2022-08-19T04:11:46;101473.50;;;26.98;39.44
13478;BME280;12598;62.382;17.344;2022-08-19T04:12:49;101459.50;;;26.80;39.31
13478;BME280;12598;62.382;17.344;2022-08-19T04:13:53;101482.97;;;27.02;39.52
13478;BME280;12598;62.382;17.344;2022-08-19T04:14:55;101445.25;;;26.78;39.49
13478;BME280;12598;62.382;17.344;2022-08-19T04:15:57;101369.47;;;26.19;39.57
13478;BME280;12598;62.382;17.344;2022-08-19T04:16:59;101475.41;;;26.83;39.58
13478;BME280;12598;62.382;17.344;2022-08-19T04:18:02;101452.94;;;26.75;39.35
13478;BME280;12598;62.382;17.344;2022-08-19T04:19:05;101485.69;;;27.02;39.67
13478;BME280;12598;62.382;17.344;2022-08-19T04:20:07;101498.22;;;27.03;39.90
13478;BME280;12598;62.382;17.344;2022-08-19T04:21:19;101491.09;;;27.02;39.89
13478;BME280;12598;62.382;17.344;2022-08-19T04:22:21;101488.28;;;26.96;39.76
13478;BME280;12598;62.382;17.344;2022-08-19T04:23:23;101489.25;;;27.03;39.38
13478;BME280;12598;62.382;17.344;2022-08-19T04:24:25;101482.22;;;26.94;39.55
13478;BME280;12598;62.382;17.344;2022-08-19T04:25:27;101437.41;;;26.69;39.75
13478;BME280;12598;62.382;17.344;2022-08-19T04:26:33;101496.53;;;27.02;39.51
13478;BME280;12598;62.382;17.344;2022-08-19T04:27:35;101492.78;;;27.03;39.93
13478;BME280;12598;62.382;17.344;2022-08-19T04:28:37;101452.38;;;26.79;39.60
13478;BME280;12598;62.382;17.344;2022-08-19T04:29:39;101454.25;;;26.79;40.01
13478;BME280;12598;62.382;17.344;2022-08-19T04:30:44;101438.22;;;26.69;39.90
13478;BME280;12598;62.382;17.344;2022-08-19T04:31:47;101461.34;;;26.80;39.65
13478;BME280;12598;62.382;17.344;2022-08-19T04:32:49;101391.53;;;26.45;39.60
13478;BME280;12598;62.382;17.344;2022-08-19T04:33:56;101485.69;;;27.02;39.68
13478;BME280;12598;62.382;17.344;2022-08-19T04:34:59;101461.84;;;26.83;39.63
13478;BME280;12598;62.382;17.344;2022-08-19T04:36:19;101436.00;;;26.73;39.60
13478;BME280;12598;62.382;17.344;2022-08-19T04:37:21;101497.84;;;27.06;39.69
13478;BME280;12598;62.382;17.344;2022-08-19T04:38:23;101477.81;;;26.93;39.79
13478;BME280;12598;62.382;17.344;2022-08-19T04:39:30;101472.47;;;26.85;39.66
13478;BME280;12598;62.382;17.344;2022-08-19T04:40:51;101492.06;;;27.09;39.41
13478;BME280;12598;62.382;17.344;2022-08-19T04:42:11;101486.53;;;27.03;39.54
13478;BME280;12598;62.382;17.344;2022-08-19T04:43:34;101478.09;;;26.98;39.28
13478;BME280;12598;62.382;17.344;2022-08-19T04:44:36;101361.78;;;26.22;39.53
13478;BME280;12598;62.382;17.344;2022-08-19T04:45:46;101493.16;;;27.00;39.43
13478;BME280;12598;62.382;17.344;2022-08-19T04:46:49;101500.75;;;27.05;39.66
13478;BME280;12598;62.382;17.344;2022-08-19T04:47:54;101461.63;;;26.85;39.42
13478;BME280;12598;62.382;17.344;2022-08-19T04:49:19;101441.53;;;26.79;39.57
13478;BME280;12598;62.382;17.344;2022-08-19T04:50:25;101495.81;;;27.08;39.72
13478;BME280;12598;62.382;17.344;2022-08-19T04:51:27;101454.72;;;26.82;39.94
13478;BME280;12598;62.382;17.344;2022-08-19T04:52:32;101421.03;;;26.62;39.53
13478;BME280;12598;62.382;17.344;2022-08-19T04:53:36;101500.94;;;27.03;39.95
13478;BME280;12598;62.382;17.344;2022-08-19T04:54:39;101465.75;;;26.81;39.87
13478;BME280;12598;62.382;17.344;2022-08-19T04:55:42;101466.59;;;26.81;39.65
13478;BME280;12598;62.382;17.344;2022-08-19T04:56:44;101475.41;;;26.83;39.87
13478;BME280;12598;62.382;17.344;2022-08-19T04:57:45;101356.28;;;26.16;39.82
13478;BME280;12598;62.382;17.344;2022-08-19T04:58:48;101494.84;;;27.01;39.76
13478;BME280;12598;62.382;17.344;2022-08-19T04:59:56;101432.72;;;26.63;40.01
13478;BME280;12598;62.382;17.344;2022-08-19T05:00:58;101481.38;;;26.93;39.65
13478;BME280;12598;62.382;17.344;2022-08-19T05:02:03;101492.78;;;27.03;40.08
13478;BME280;12598;62.382;17.344;2022-08-19T05:03:05;101364.41;;;26.16;39.94
13478;BME280;12598;62.382;17.344;2022-08-19T05:04:09;101493.00;;;27.02;39.65
13478;BME280;12598;62.382;17.344;2022-08-19T05:05:11;101456.09;;;26.78;39.81
13478;BME280;12598;62.382;17.344;2022-08-19T05:06:15;101497.56;;;27.01;39.81
13478;BME280;12598;62.382;17.344;2022-08-19T05:07:18;101368.88;;;26.23;39.97
13478;BME280;12598;62.382;17.344;2022-08-19T05:08:21;101461.44;;;26.72;39.61
13478;BME280;12598;62.382;17.344;2022-08-19T05:09:32;101463.31;;;26.86;39.75
13478;BME280;12598;62.382;17.344;2022-08-19T05:10:54;101473.69;;;26.97;39.61
13478;BME280;12598;62.382;17.344;2022-08-19T05:11:56;101385.66;;;26.41;39.70
13478;BME280;12598;62.382;17.344;2022-08-19T05:12:57;101453.31;;;26.86;39.73
13478;BME280;12598;62.382;17.344;2022-08-19T05:14:00;101475.03;;;27.01;39.57
13478;BME280;12598;62.382;17.344;2022-08-19T05:15:04;101490.00;;;27.11;40.07
13478;BME280;12598;62.382;17.344;2022-08-19T05:16:07;101423.91;;;26.75;39.66
13478;BME280;12598;62.382;17.344;2022-08-19T05:17:08;101470.34;;;27.09;39.67
13478;BME280;12598;62.382;17.344;2022-08-19T05:18:30;101472.56;;;27.20;39.52
13478;BME280;12598;62.382;17.344;2022-08-19T05:19:50;101464.06;;;27.23;39.63
13478;BME280;12598;62.382;17.344;2022-08-19T05:21:14;101436.06;;;27.08;39.37
13478;BME280;12598;62.382;17.344;2022-08-19T05:22:34;101429.31;;;27.04;38.99
13478;BME280;12598;62.382;17.344;2022-08-19T05:23:37;101458.44;;;27.24;39.28
13478;BME280;12598;62.382;17.344;2022-08-19T05:24:38;101455.91;;;27.23;38.97
13478;BME280;12598;62.382;17.344;2022-08-19T05:26:00;101431.94;;;27.12;39.44
13478;BME280;12598;62.382;17.344;2022-08-19T05:27:03;101360.84;;;26.73;39.00
13478;BME280;12598;62.382;17.344;2022-08-19T05:28:06;101427.44;;;27.19;39.34
13478;BME280;12598;62.382;17.344;2022-08-19T05:29:09;101408.06;;;27.08;38.81
13478;BME280;12598;62.382;17.344;2022-08-19T05:30:11;101419.09;;;27.21;38.72
13478;BME280;12598;62.382;17.344;2022-08-19T05:31:13;101329.53;;;26.71;38.65
13478;BME280;12598;62.382;17.344;2022-08-19T05:32:16;101423.78;;;27.26;38.88
13478;BME280;12598;62.382;17.344;2022-08-19T05:33:18;101452.66;;;27.48;38.81
13478;BME280;12598;62.382;17.344;2022-08-19T05:34:21;101429.28;;;27.33;39.04
13478;BME280;12598;62.382;17.344;2022-08-19T05:35:24;101399.91;;;27.22;38.74